Time;durP1;ratioP1;P1;durP2;ratioP2;P2;SDS_P1;SDS_P2;PMS_P1;PMS_P2;Temp;Humidity;BMP_temperature;BMP_pressure;BME280_temperature;BME280_humidity;BME280_pressure;Samples;Min_cycle;Max_cycle;Signal;HPM_P1;HPM_P2
2022/10/11 00:02:23;;;;;;;16.58;5.35;;;;;;;15.18;100.00;102268.19;5018427;28;20058;-51
2022/10/11 00:04:51;;;;;;;16.10;4.67;;;;;;;15.13;100.00;102266.09;5004825;28;20035;-53
2022/10/11 00:07:18;;;;;;;16.60;5.70;;;;;;;15.08;100.00;102270.38;5004450;28;20295;-51
2022/10/11 00:09:44;;;;;;;22.30;5.07;;;;;;;15.11;100.00;102283.47;5002304;28;20050;-52
2022/10/11 00:12:10;;;;;;;21.83;5.20;;;;;;;15.03;100.00;102277.16;4997029;28;20057;-51
2022/10/11 00:14:37;;;;;;;20.55;5.63;;;;;;;15.11;100.00;102278.06;5015255;28;20027;-52
2022/10/11 00:17:03;;;;;;;14.57;5.00;;;;;;;15.03;100.00;102276.31;5011115;28;20042;-50
2022/10/11 00:19:28;;;;;;;21.98;6.90;;;;;;;14.99;100.00;102264.25;5021884;28;20038;-54
2022/10/11 00:21:54;;;;;;;20.77;5.23;;;;;;;14.97;100.00;102277.91;5006542;28;20110;-53
2022/10/11 00:24:19;;;;;;;15.73;4.90;;;;;;;14.89;100.00;102273.50;5000091;28;20033;-52
2022/10/11 00:26:45;;;;;;;15.33;5.20;;;;;;;14.91;100.00;102274.13;5006918;28;20043;-53
2022/10/11 00:29:11;;;;;;;33.05;5.93;;;;;;;14.76;100.00;102279.56;5019878;28;20062;-50
2022/10/11 00:31:37;;;;;;;21.50;5.53;;;;;;;14.69;100.00;102281.28;5002817;28;20042;-50
2022/10/11 00:34:03;;;;;;;23.50;5.72;;;;;;;14.64;100.00;102283.69;4997158;28;20031;-51
2022/10/11 00:36:29;;;;;;;18.13;6.38;;;;;;;14.67;100.00;102282.50;5011383;28;20030;-52
2022/10/11 00:38:55;;;;;;;30.17;7.23;;;;;;;14.68;100.00;102286.88;5002120;28;20102;-50
2022/10/11 00:41:20;;;;;;;19.03;6.13;;;;;;;14.69;100.00;102286.66;5012118;28;20057;-52
2022/10/11 00:43:46;;;;;;;19.23;5.55;;;;;;;14.54;100.00;102288.56;5010919;28;20123;-52
2022/10/11 00:46:17;;;;;;;20.03;6.47;;;;;;;14.59;100.00;102291.50;5001113;28;20062;-54
2022/10/11 00:48:47;;;;;;;18.33;5.40;;;;;;;14.69;100.00;102297.44;5015389;28;20349;-52
2022/10/11 00:51:17;;;;;;;20.60;4.93;;;;;;;14.26;100.00;102299.94;5003492;28;20132;-50
2022/10/11 00:53:45;;;;;;;20.27;5.72;;;;;;;14.32;100.00;102300.03;5002807;28;20068;-54
2022/10/11 00:56:22;;;;;;;16.85;5.35;;;;;;;14.33;100.00;102307.09;5005037;28;20034;-50
2022/10/11 00:58:48;;;;;;;29.70;7.13;;;;;;;14.56;100.00;102303.47;5004739;28;20037;-53
2022/10/11 01:01:14;;;;;;;26.40;5.82;;;;;;;14.53;100.00;102311.06;5006676;28;20031;-49
2022/10/11 01:03:40;;;;;;;24.60;4.88;;;;;;;14.36;100.00;102305.03;5006363;28;20060;-49
2022/10/11 01:06:06;;;;;;;17.88;5.03;;;;;;;14.38;100.00;102311.06;5011977;28;20031;-51
2022/10/11 01:08:32;;;;;;;22.60;6.20;;;;;;;14.31;100.00;102313.69;5005794;28;20058;-50
2022/10/11 01:10:58;;;;;;;31.98;6.47;;;;;;;14.20;100.00;102313.13;5004597;28;20041;-53
2022/10/11 01:14:01;;;;;;;16.57;5.77;;;;;;;14.24;100.00;102315.44;5004634;28;20035;-52
2022/10/11 01:16:36;;;;;;;18.10;5.35;;;;;;;14.32;100.00;102318.06;5001196;28;20264;-51
2022/10/11 01:19:42;;;;;;;21.10;5.13;;;;;;;14.19;100.00;102324.06;4999353;28;20090;-48
2022/10/11 01:22:46;;;;;;;25.75;6.13;;;;;;;14.10;100.00;102319.78;5009021;28;20057;-54
2022/10/11 01:25:33;;;;;;;27.83;5.95;;;;;;;14.02;100.00;102318.00;4999705;28;20062;-51
2022/10/11 01:28:24;;;;;;;18.17;6.75;;;;;;;13.85;100.00;102320.84;5011181;28;20044;-52
2022/10/11 01:30:55;;;;;;;16.92;5.75;;;;;;;13.93;100.00;102319.09;5002478;28;20035;-53
2022/10/11 01:33:35;;;;;;;20.48;5.90;;;;;;;14.11;100.00;102324.97;5005109;28;20038;-51
2022/10/11 01:36:11;;;;;;;22.92;5.10;;;;;;;14.19;100.00;102319.50;5008275;28;20110;-53
2022/10/11 01:38:43;;;;;;;18.63;6.72;;;;;;;13.99;100.00;102318.34;5006150;28;20032;-52
2022/10/11 01:41:29;;;;;;;19.85;6.47;;;;;;;14.18;100.00;102320.53;4999259;28;20031;-52
2022/10/11 01:43:59;;;;;;;21.75;5.85;;;;;;;14.13;100.00;102322.09;5010619;28;20038;-53
2022/10/11 01:46:26;;;;;;;17.17;5.90;;;;;;;14.31;100.00;102325.28;4998556;28;20046;-51
2022/10/11 01:49:02;;;;;;;20.02;5.25;;;;;;;14.30;100.00;102322.75;5017359;28;20116;-50
2022/10/11 01:51:31;;;;;;;30.52;6.43;;;;;;;14.13;100.00;102320.25;5003898;28;20075;-48
2022/10/11 01:54:17;;;;;;;11.57;4.35;;;;;;;14.09;100.00;102324.34;5003523;28;20027;-50
2022/10/11 01:57:01;;;;;;;17.55;5.47;;;;;;;14.19;100.00;102324.06;5004480;28;20039;-50
2022/10/11 02:00:00;;;;;;;15.43;4.95;;;;;;;14.13;100.00;102325.63;5002095;28;20050;-51
2022/10/11 02:02:50;;;;;;;24.15;6.57;;;;;;;14.12;100.00;102323.13;5015370;28;20043;-51
2022/10/11 02:05:39;;;;;;;19.08;5.60;;;;;;;14.06;100.00;102332.75;4999754;28;20039;-50
2022/10/11 02:08:22;;;;;;;19.10;5.68;;;;;;;14.07;100.00;102328.22;5012560;28;20043;-50
2022/10/11 02:10:54;;;;;;;18.67;5.93;;;;;;;14.01;100.00;102324.38;5007928;28;20038;-49
2022/10/11 02:13:39;;;;;;;16.85;5.60;;;;;;;13.95;100.00;102328.63;5000969;28;20035;-56
2022/10/11 02:16:11;;;;;;;22.65;5.35;;;;;;;13.92;100.00;102331.69;5012743;28;20422;-53
2022/10/11 02:18:42;;;;;;;20.50;6.47;;;;;;;14.01;100.00;102329.78;5005186;28;20026;-50
2022/10/11 02:21:13;;;;;;;18.13;5.88;;;;;;;13.90;100.00;102331.88;5007249;28;20028;-50
2022/10/11 02:23:47;;;;;;;30.80;6.63;;;;;;;13.92;100.00;102326.31;5006244;28;20049;-51
2022/10/11 02:26:13;;;;;;;20.58;6.50;;;;;;;13.96;100.00;102329.47;5004740;28;20033;-50
2022/10/11 02:28:42;;;;;;;17.05;5.60;;;;;;;13.91;100.00;102330.03;5004914;28;20047;-52
2022/10/11 02:31:09;;;;;;;27.48;6.13;;;;;;;14.01;100.00;102327.06;5005596;28;20058;-51
2022/10/11 02:33:46;;;;;;;21.90;5.68;;;;;;;13.87;100.00;102326.88;4998058;28;20162;-51
2022/10/11 02:36:26;;;;;;;19.92;5.60;;;;;;;13.96;100.00;102330.34;4999898;28;20094;-51
2022/10/11 02:38:55;;;;;;;23.67;6.38;;;;;;;13.96;100.00;102333.03;5007970;28;20038;-54
2022/10/11 02:41:29;;;;;;;29.60;6.70;;;;;;;13.99;100.00;102337.19;4999680;28;20060;-54
2022/10/11 02:44:03;;;;;;;18.67;6.28;;;;;;;13.84;100.00;102335.31;5006280;28;20061;-55
2022/10/11 02:46:30;;;;;;;24.70;5.68;;;;;;;13.90;100.00;102339.97;4998455;28;20067;-51
2022/10/11 02:48:58;;;;;;;16.67;5.63;;;;;;;13.96;100.00;102335.72;5008787;28;20051;-51
2022/10/11 02:51:25;;;;;;;22.60;5.90;;;;;;;13.99;100.00;102334.50;4998474;28;20039;-53
2022/10/11 02:53:52;;;;;;;22.65;6.07;;;;;;;13.84;100.00;102346.06;5018430;28;20043;-53
2022/10/11 02:56:18;;;;;;;20.92;5.88;;;;;;;13.83;100.00;102335.47;5006904;28;20034;-48
2022/10/11 02:58:43;;;;;;;26.23;6.88;;;;;;;13.84;100.00;102338.00;5004788;28;20049;-53
2022/10/11 03:01:09;;;;;;;23.33;5.80;;;;;;;13.80;100.00;102339.34;4997888;28;20027;-48
2022/10/11 03:03:34;;;;;;;21.37;6.43;;;;;;;13.69;100.00;102345.97;5005136;28;20072;-48
2022/10/11 03:06:02;;;;;;;21.15;5.85;;;;;;;13.80;100.00;102351.97;5004875;28;20042;-49
2022/10/11 03:08:27;;;;;;;16.65;5.95;;;;;;;13.80;100.00;102354.66;4999089;28;20030;-48
2022/10/11 03:10:52;;;;;;;15.70;5.50;;;;;;;13.69;100.00;102351.34;5009035;28;20039;-48
2022/10/11 03:13:18;;;;;;;20.93;5.63;;;;;;;13.79;100.00;102340.38;5005685;28;20039;-51
2022/10/11 03:15:48;;;;;;;19.63;6.27;;;;;;;13.87;100.00;102343.00;5010490;28;20034;-52
2022/10/11 03:18:13;;;;;;;23.88;6.55;;;;;;;13.91;100.00;102346.16;5003243;28;20356;-54
2022/10/11 03:20:39;;;;;;;15.82;5.53;;;;;;;13.71;100.00;102353.88;5002604;28;20045;-53
2022/10/11 03:23:04;;;;;;;15.63;5.40;;;;;;;13.61;100.00;102344.22;5017963;28;20031;-48
2022/10/11 03:25:30;;;;;;;13.60;5.28;;;;;;;13.26;100.00;102350.94;5003350;28;20118;-49
2022/10/11 03:27:55;;;;;;;17.53;6.77;;;;;;;13.41;100.00;102353.72;5011586;28;20069;-50
2022/10/11 03:30:21;;;;;;;22.33;5.27;;;;;;;13.26;100.00;102351.78;5003301;28;20043;-52
2022/10/11 03:32:46;;;;;;;22.33;5.93;;;;;;;13.52;100.00;102355.19;5005920;28;20344;-47
2022/10/11 03:35:12;;;;;;;24.60;6.13;;;;;;;13.77;100.00;102353.16;5012564;28;20058;-52
2022/10/11 03:37:37;;;;;;;18.23;6.40;;;;;;;13.91;100.00;102362.28;4999350;28;20045;-51
2022/10/11 03:40:05;;;;;;;17.77;5.87;;;;;;;14.05;100.00;102366.03;5007142;28;20328;-51
2022/10/11 03:42:31;;;;;;;17.00;5.68;;;;;;;13.94;100.00;102379.94;4999796;28;20058;-51
2022/10/11 03:44:58;;;;;;;25.73;6.50;;;;;;;13.63;100.00;102373.59;5004297;28;20053;-52
2022/10/11 03:47:24;;;;;;;27.65;6.65;;;;;;;13.80;100.00;102374.31;5004330;28;20035;-52
2022/10/11 03:49:49;;;;;;;21.97;7.17;;;;;;;13.76;100.00;102373.00;5010026;28;20054;-52
2022/10/11 03:52:15;;;;;;;19.58;7.10;;;;;;;13.91;100.00;102371.22;5011491;28;20033;-49
2022/10/11 03:54:40;;;;;;;21.17;5.63;;;;;;;13.75;100.00;102374.00;5007766;28;20056;-52
2022/10/11 03:57:06;;;;;;;21.53;6.63;;;;;;;13.81;100.00;102370.59;5012189;28;20031;-49
2022/10/11 03:59:31;;;;;;;17.33;6.60;;;;;;;13.85;100.00;102377.31;5003661;28;20222;-52
2022/10/11 04:01:57;;;;;;;24.75;6.32;;;;;;;13.81;100.00;102375.16;5002158;28;20038;-53
2022/10/11 04:04:22;;;;;;;24.70;5.83;;;;;;;13.68;100.00;102375.75;5016201;28;20035;-51
2022/10/11 04:06:48;;;;;;;15.57;5.70;;;;;;;13.75;100.00;102382.06;5003083;28;20034;-49
2022/10/11 04:09:13;;;;;;;19.23;6.80;;;;;;;13.86;100.00;102379.00;4996622;28;20045;-52
2022/10/11 04:11:39;;;;;;;22.40;5.10;;;;;;;14.01;100.00;102380.88;5010495;28;20304;-49
2022/10/11 04:14:04;;;;;;;25.97;5.40;;;;;;;14.15;100.00;102377.41;5008805;28;20034;-53
2022/10/11 04:16:30;;;;;;;19.43;5.37;;;;;;;13.87;100.00;102394.09;5009079;28;20260;-52
2022/10/11 04:18:55;;;;;;;25.50;6.63;;;;;;;13.79;100.00;102386.06;5002651;28;20053;-49
2022/10/11 04:21:21;;;;;;;37.70;6.77;;;;;;;14.00;100.00;102389.97;5009320;28;20283;-53
2022/10/11 04:23:46;;;;;;;20.73;5.65;;;;;;;14.01;100.00;102392.47;5003256;28;20125;-52
2022/10/11 04:26:12;;;;;;;16.63;6.20;;;;;;;13.99;100.00;102393.66;5007906;28;20038;-53
2022/10/11 04:28:37;;;;;;;22.10;5.83;;;;;;;14.04;100.00;102393.97;5011391;28;20277;-53
2022/10/11 04:31:04;;;;;;;22.53;5.50;;;;;;;14.02;100.00;102396.00;5001440;28;20111;-48
2022/10/11 04:33:29;;;;;;;;;;;;;;;13.85;100.00;102404.22;5003889;28;20028;-52
2022/10/11 04:35:55;;;;;;;13.07;5.53;;;;;;;13.85;100.00;102404.22;5002030;28;19914;-51
2022/10/11 04:38:22;;;;;;;19.35;6.25;;;;;;;13.75;100.00;102409.81;5010540;28;20034;-51
2022/10/11 04:40:48;;;;;;;20.13;5.78;;;;;;;13.88;100.00;102411.06;5001507;28;20053;-50
2022/10/11 04:43:15;;;;;;;21.73;6.03;;;;;;;13.70;100.00;102405.97;5001021;28;20046;-48
2022/10/11 04:45:42;;;;;;;18.30;6.05;;;;;;;13.80;100.00;102406.56;5010511;28;20039;-50
2022/10/11 04:48:07;;;;;;;15.07;5.25;;;;;;;13.69;100.00;102404.31;5001639;28;20102;-50
2022/10/11 04:50:33;;;;;;;15.13;5.17;;;;;;;13.71;100.00;102415.72;5009255;28;20059;-54
2022/10/11 04:52:58;;;;;;;16.70;5.10;;;;;;;13.66;100.00;102412.72;5001821;28;20057;-50
2022/10/11 04:55:24;;;;;;;22.93;5.67;;;;;;;13.54;100.00;102425.75;5009666;28;20121;-48
2022/10/11 04:57:49;;;;;;;19.30;5.73;;;;;;;13.58;100.00;102409.06;5012502;28;20034;-51
2022/10/11 05:00:15;;;;;;;25.47;5.87;;;;;;;13.83;100.00;102416.97;5003093;28;20035;-51
2022/10/11 05:02:41;;;;;;;19.33;6.57;;;;;;;13.75;100.00;102411.66;5003759;28;20269;-49
2022/10/11 05:05:07;;;;;;;21.47;5.53;;;;;;;13.58;100.00;102409.06;5004667;28;20068;-52
2022/10/11 05:07:33;;;;;;;30.42;6.72;;;;;;;13.52;100.00;102419.69;5009704;28;20035;-47
2022/10/11 05:09:58;;;;;;;16.97;5.47;;;;;;;13.44;100.00;102413.34;5009465;28;20041;-45
2022/10/11 05:12:24;;;;;;;22.67;5.83;;;;;;;13.56;100.00;102410.28;5009592;28;20303;-49
2022/10/11 05:14:49;;;;;;;25.40;4.43;;;;;;;13.79;100.00;102418.34;4999998;28;20043;-51
2022/10/11 05:17:15;;;;;;;17.95;5.13;;;;;;;13.98;100.00;102418.88;5006489;28;20035;-50
2022/10/11 05:19:40;;;;;;;21.03;5.23;;;;;;;14.13;100.00;102424.31;5009639;28;20030;-50
2022/10/11 05:22:06;;;;;;;32.30;5.07;;;;;;;14.20;100.00;102430.69;5008689;28;20038;-52
2022/10/11 05:24:31;;;;;;;24.10;5.82;;;;;;;13.93;100.00;102429.34;5014210;28;20281;-54
2022/10/11 05:26:57;;;;;;;21.63;6.40;;;;;;;13.76;100.00;102426.78;5003303;28;20035;-53
2022/10/11 05:29:23;;;;;;;19.10;4.60;;;;;;;13.71;100.00;102429.16;5005091;28;20273;-51
2022/10/11 05:31:48;;;;;;;19.52;5.70;;;;;;;13.83;100.00;102424.22;5005988;28;20035;-53
2022/10/11 05:34:13;;;;;;;23.70;5.07;;;;;;;14.11;100.00;102429.06;5004803;28;20073;-53
2022/10/11 05:36:39;;;;;;;16.40;5.27;;;;;;;14.11;100.00;102429.06;5007387;28;20056;-52
2022/10/11 05:39:04;;;;;;;20.03;4.93;;;;;;;14.14;100.00;102424.16;5008396;28;20031;-54
2022/10/11 05:41:30;;;;;;;16.90;5.33;;;;;;;14.01;100.00;102432.84;5004602;28;20260;-53
2022/10/11 05:43:55;;;;;;;21.37;4.97;;;;;;;14.05;100.00;102435.97;5009661;28;20070;-52
2022/10/11 05:46:21;;;;;;;14.60;4.38;;;;;;;13.99;100.00;102431.31;5007581;28;20039;-54
2022/10/11 05:48:46;;;;;;;15.27;4.83;;;;;;;13.89;100.00;102432.41;5004149;28;20090;-52
2022/10/11 05:51:12;;;;;;;20.20;4.57;;;;;;;13.84;100.00;102439.34;5015315;28;20038;-52
2022/10/11 05:53:38;;;;;;;19.70;5.30;;;;;;;13.65;100.00;102437.94;5005449;28;20042;-56
2022/10/11 05:56:04;;;;;;;;;;;;;;;13.86;100.00;102443.53;4998009;28;20030;-53
2022/10/11 05:58:30;;;;;;;24.03;5.27;;;;;;;13.91;100.00;102438.44;5007357;28;19914;-53
2022/10/11 06:00:56;;;;;;;21.70;4.72;;;;;;;13.75;100.00;102450.16;5009681;28;20110;-51
2022/10/11 06:03:22;;;;;;;16.35;4.88;;;;;;;14.11;100.00;102445.19;5000501;28;20089;-49
2022/10/11 06:05:48;;;;;;;17.30;4.17;;;;;;;14.01;100.00;102448.13;5014512;28;20051;-51
2022/10/11 06:08:14;;;;;;;22.27;4.90;;;;;;;14.06;100.00;102453.78;5003330;28;20272;-53
2022/10/11 06:10:40;;;;;;;15.98;4.90;;;;;;;14.04;100.00;102453.13;5003097;28;20068;-51
2022/10/11 06:13:06;;;;;;;14.13;4.70;;;;;;;13.87;100.00;102465.88;5005271;28;20089;-50
2022/10/11 06:15:33;;;;;;;21.42;5.72;;;;;;;13.84;100.00;102466.22;5002512;28;20045;-51
2022/10/11 06:17:59;;;;;;;21.83;5.00;;;;;;;13.71;100.00;102461.44;5017551;28;20077;-52
2022/10/11 06:20:26;;;;;;;13.98;4.13;;;;;;;13.72;100.00;102463.09;5006454;28;20031;-49
2022/10/11 06:22:52;;;;;;;21.38;4.85;;;;;;;14.00;100.00;102460.75;5000602;28;20038;-47
2022/10/11 06:25:17;;;;;;;20.47;4.90;;;;;;;14.11;100.00;102466.72;5003773;28;20034;-52
2022/10/11 06:27:43;;;;;;;15.77;5.43;;;;;;;14.29;100.00;102464.56;5003988;28;20273;-52
2022/10/11 06:30:09;;;;;;;28.87;5.57;;;;;;;14.18;100.00;102476.59;5007481;28;20061;-50
2022/10/11 06:32:34;;;;;;;16.65;4.72;;;;;;;14.10;100.00;102478.50;5002819;28;20295;-50
2022/10/11 06:35:02;;;;;;;18.27;5.37;;;;;;;14.29;100.00;102474.47;5007452;28;20106;-52
2022/10/11 06:37:28;;;;;;;18.17;4.82;;;;;;;14.36;100.00;102475.44;4998779;28;20046;-50
2022/10/11 06:39:54;;;;;;;18.83;4.95;;;;;;;14.47;100.00;102477.69;5004030;28;20048;-52
2022/10/11 06:42:20;;;;;;;11.57;4.17;;;;;;;14.72;100.00;102482.88;5004486;28;20086;-51
2022/10/11 06:44:45;;;;;;;15.80;4.88;;;;;;;14.76;100.00;102492.31;4996186;28;20069;-51
2022/10/11 06:47:11;;;;;;;15.50;5.17;;;;;;;14.83;100.00;102492.38;5013096;28;20044;-49
2022/10/11 06:49:37;;;;;;;28.92;6.82;;;;;;;14.79;100.00;102492.94;5002004;28;20081;-51
2022/10/11 06:52:02;;;;;;;13.03;6.17;;;;;;;14.80;100.00;102491.94;5012255;28;20034;-52
2022/10/11 06:54:27;;;;;;;24.37;6.33;;;;;;;14.86;100.00;102492.00;5005663;28;20149;-50
2022/10/11 06:56:53;;;;;;;15.43;5.40;;;;;;;14.76;100.00;102503.06;5001194;28;20114;-51
2022/10/11 06:59:19;;;;;;;14.02;4.55;;;;;;;14.94;100.00;102504.56;5007384;28;20074;-49
2022/10/11 07:01:44;;;;;;;14.73;4.70;;;;;;;15.04;100.00;102509.69;5026709;28;20027;-50
2022/10/11 07:04:10;;;;;;;13.63;4.50;;;;;;;14.49;100.00;102504.44;5001824;28;20042;-49
2022/10/11 07:06:38;;;;;;;7.95;4.63;;;;;;;14.98;100.00;102508.56;5007922;28;20050;-48
2022/10/11 07:09:05;;;;;;;9.75;4.57;;;;;;;15.11;100.00;102507.94;5007839;28;20026;-50
2022/10/11 07:11:31;;;;;;;14.02;4.43;;;;;;;15.23;100.00;102513.72;5010058;28;20035;-51
2022/10/11 07:14:03;;;;;;;14.63;4.45;;;;;;;15.22;100.00;102516.56;5009832;28;20061;-51
2022/10/11 07:16:28;;;;;;;11.50;4.50;;;;;;;15.12;100.00;102508.75;5035266;28;20030;-50
2022/10/11 07:18:58;;;;;;;7.30;3.93;;;;;;;15.17;100.00;102511.75;5012141;28;20034;-49
2022/10/11 07:21:25;;;;;;;9.75;5.18;;;;;;;15.04;100.00;102510.53;5009544;28;20340;-50
2022/10/11 07:23:50;;;;;;;9.55;4.25;;;;;;;14.88;100.00;102506.16;4998800;28;20049;-51
2022/10/11 07:26:16;;;;;;;14.70;5.23;;;;;;;14.77;100.00;102515.53;5014066;28;20048;-53
2022/10/11 07:28:42;;;;;;;8.82;4.65;;;;;;;15.12;100.00;102522.25;5002170;28;20031;-48
2022/10/11 07:31:17;;;;;;;13.03;5.77;;;;;;;15.17;100.00;102523.38;5011661;28;20034;-52
2022/10/11 07:33:43;;;;;;;10.33;5.20;;;;;;;15.26;100.00;102521.41;5007929;28;20272;-51
2022/10/11 07:36:10;;;;;;;14.85;5.10;;;;;;;15.33;100.00;102535.81;5008095;28;20268;-54
2022/10/11 07:38:44;;;;;;;14.63;4.93;;;;;;;15.33;100.00;102530.44;5013394;28;20047;-51
2022/10/11 07:41:09;;;;;;;13.37;5.70;;;;;;;15.44;100.00;102541.75;5012123;28;20038;-51
2022/10/11 07:43:36;;;;;;;10.95;4.55;;;;;;;15.58;100.00;102543.63;5005330;28;20287;-54
2022/10/11 07:46:03;;;;;;;9.43;5.23;;;;;;;15.59;100.00;102536.38;5007784;28;20030;-49
2022/10/11 07:48:33;;;;;;;10.70;5.43;;;;;;;15.67;100.00;102538.09;5005381;28;20276;-51
2022/10/11 07:51:08;;;;;;;16.63;6.27;;;;;;;15.74;100.00;102544.44;5000222;28;20046;-53
2022/10/11 07:53:46;;;;;;;16.93;6.57;;;;;;;15.89;100.00;102547.97;5008489;28;20261;-52
2022/10/11 07:56:13;;;;;;;12.20;5.80;;;;;;;15.96;100.00;102548.06;5006686;28;20317;-51
2022/10/11 07:58:40;;;;;;;14.10;5.73;;;;;;;16.11;100.00;102547.19;5002157;28;20045;-54
2022/10/11 08:01:05;;;;;;;;;;;;;;;16.31;100.00;102552.78;5016518;28;20433;-53
2022/10/11 08:03:31;;;;;;;21.73;5.03;;;;;;;16.19;100.00;102558.69;5003655;28;19929;-53
2022/10/11 08:06:03;;;;;;;11.55;4.63;;;;;;;16.34;100.00;102552.41;5017400;28;20041;-53
2022/10/11 08:08:30;;;;;;;11.57;6.50;;;;;;;16.63;100.00;102558.72;5004656;28;20034;-53
2022/10/11 08:10:56;;;;;;;15.52;6.57;;;;;;;16.79;100.00;102557.59;5004612;28;20366;-53
2022/10/11 08:13:23;;;;;;;11.97;5.10;;;;;;;16.66;100.00;102561.03;5010409;28;20046;-56
2022/10/11 08:15:49;;;;;;;11.85;5.28;;;;;;;16.61;100.00;102569.69;5005886;28;20275;-51
2022/10/11 08:18:15;;;;;;;17.23;6.57;;;;;;;17.13;100.00;102568.69;5004907;28;20060;-54
2022/10/11 08:20:40;;;;;;;14.10;4.87;;;;;;;17.60;100.00;102566.25;5007477;28;20026;-52
2022/10/11 08:23:08;;;;;;;21.17;5.95;;;;;;;17.82;100.00;102572.41;5009650;28;20034;-53
2022/10/11 08:25:42;;;;;;;14.80;4.47;;;;;;;18.00;100.00;102573.72;5009501;28;20107;-49
2022/10/11 08:28:09;;;;;;;21.40;3.57;;;;;;;18.43;100.00;102572.59;5007912;28;20268;-53
2022/10/11 08:30:35;;;;;;;18.25;4.53;;;;;;;19.03;100.00;102578.06;4992864;28;20285;-48
2022/10/11 08:33:01;;;;;;;16.88;4.10;;;;;;;19.33;100.00;102576.78;5013119;28;20102;-52
2022/10/11 08:35:27;;;;;;;12.77;3.28;;;;;;;19.48;100.00;102587.38;5005888;28;20031;-52
2022/10/11 08:37:53;;;;;;;14.93;4.25;;;;;;;20.12;100.00;102589.44;5004947;28;20042;-54
2022/10/11 08:40:21;;;;;;;12.70;3.88;;;;;;;20.40;100.00;102589.09;5006263;28;20036;-55
2022/10/11 08:42:59;;;;;;;17.93;3.90;;;;;;;21.33;100.00;102594.81;5006647;28;20054;-55
2022/10/11 08:45:58;;;;;;;13.20;2.93;;;;;;;21.99;100.00;102598.91;5010949;28;20880;-54
2022/10/11 08:48:33;;;;;;;18.10;4.20;;;;;;;22.32;100.00;102609.34;4988410;28;20044;-48
2022/10/11 08:51:01;;;;;;;10.60;3.00;;;;;;;22.51;95.87;102611.19;5002924;28;20069;-52
2022/10/11 08:53:45;;;;;;;8.70;2.67;;;;;;;22.43;89.65;102618.59;5008026;28;20035;-54
2022/10/11 08:56:13;;;;;;;12.80;3.00;;;;;;;24.07;82.44;102627.28;4997112;28;20035;-53
2022/10/11 08:58:43;;;;;;;14.33;3.80;;;;;;;23.67;82.04;102617.16;5002398;28;20034;-50
2022/10/11 09:01:15;;;;;;;8.07;2.53;;;;;;;24.26;80.66;102616.97;5011863;28;20054;-53
2022/10/11 09:03:45;;;;;;;11.47;3.00;;;;;;;24.34;76.57;102613.84;4995945;28;20046;-53
2022/10/11 09:06:25;;;;;;;17.87;3.40;;;;;;;24.58;72.50;102615.59;4998038;28;20034;-52
2022/10/11 09:09:09;;;;;;;21.43;3.90;;;;;;;24.55;72.21;102618.84;5000912;28;20097;-55
2022/10/11 09:12:02;;;;;;;12.37;3.03;;;;;;;24.37;72.87;102617.16;4996306;28;20039;-50
2022/10/11 09:14:49;;;;;;;10.80;3.50;;;;;;;24.77;73.28;102611.59;5011916;28;20498;-54
2022/10/11 09:17:27;;;;;;;10.00;2.80;;;;;;;25.58;64.41;102623.16;5002893;28;20023;-53
2022/10/11 09:20:20;;;;;;;7.90;3.13;;;;;;;24.76;66.32;102618.13;4999374;28;20068;-54
2022/10/11 09:23:02;;;;;;;10.27;2.67;;;;;;;25.31;65.14;102618.38;5004397;28;20039;-55
2022/10/11 09:25:48;;;;;;;15.17;2.97;;;;;;;25.82;65.91;102620.16;5009503;28;20553;-51
2022/10/11 09:28:21;;;;;;;13.10;2.93;;;;;;;26.08;62.27;102631.44;5013999;28;20045;-52
2022/10/11 09:30:49;;;;;;;12.00;2.90;;;;;;;26.52;59.63;102629.66;4998795;28;20051;-54
2022/10/11 09:33:27;;;;;;;13.93;2.77;;;;;;;26.53;58.91;102631.34;4996636;28;20114;-55
2022/10/11 09:35:55;;;;;;;9.57;3.10;;;;;;;26.54;56.38;102630.25;5003854;28;20061;-54
2022/10/11 09:38:42;;;;;;;13.37;3.50;;;;;;;27.39;54.53;102634.13;4997266;28;20042;-53
2022/10/11 09:41:46;;;;;;;11.73;2.13;;;;;;;27.23;50.65;102645.06;5006184;28;20057;-55
2022/10/11 09:44:20;;;;;;;11.33;2.43;;;;;;;27.32;49.17;102637.97;5000536;28;20102;-55
2022/10/11 09:46:48;;;;;;;14.70;2.70;;;;;;;27.23;50.19;102645.06;4998751;28;20041;-54
2022/10/11 09:49:17;;;;;;;12.20;2.77;;;;;;;27.65;49.85;102645.28;5010593;28;20062;-55
2022/10/11 09:51:48;;;;;;;10.13;2.70;;;;;;;27.73;50.16;102644.78;5005327;28;20035;-53
2022/10/11 09:54:16;;;;;;;11.97;2.50;;;;;;;27.95;48.02;102646.50;5018759;28;20034;-53
2022/10/11 09:56:44;;;;;;;7.67;2.43;;;;;;;28.32;47.61;102648.25;5026488;28;20061;-53
2022/10/11 09:59:26;;;;;;;11.97;3.10;;;;;;;29.00;46.87;102646.34;4999388;28;20065;-55
2022/10/11 10:02:13;;;;;;;6.80;2.03;;;;;;;28.71;46.07;102652.38;4999700;28;20031;-53
2022/10/11 10:04:55;;;;;;;;;;;;;;;28.88;45.24;102646.66;5000399;28;20034;-56
2022/10/11 10:07:22;;;;;;;9.20;2.38;;;;;;;29.95;42.44;102643.81;5011090;28;19921;-55
2022/10/11 10:09:47;;;;;;;;;;;;;;;29.48;42.14;102643.22;5001306;28;20054;-57
2022/10/11 10:12:20;;;;;;;14.23;2.85;;;;;;;29.27;40.74;102656.22;5002205;28;19943;-53
2022/10/11 10:14:58;;;;;;;14.88;2.20;;;;;;;28.94;40.80;102642.78;4998026;28;20030;-53
2022/10/11 10:17:23;;;;;;;13.35;2.97;;;;;;;30.13;38.57;102647.88;5003233;28;20038;-53
2022/10/11 10:19:53;;;;;;;;;;;;;;;30.51;37.86;102641.00;5007114;28;20045;-53
2022/10/11 10:22:22;;;;;;;12.30;2.90;;;;;;;31.12;37.89;102652.56;5005377;28;19914;-55
2022/10/11 10:24:49;;;;;;;6.38;2.08;;;;;;;30.60;37.78;102642.84;5002924;28;20039;-56
2022/10/11 10:27:21;;;;;;;9.48;2.40;;;;;;;30.88;37.28;102651.44;4997676;28;20038;-56
2022/10/11 10:30:01;;;;;;;11.23;2.65;;;;;;;31.24;36.09;102649.44;5005802;28;20038;-55
2022/10/11 10:32:38;;;;;;;9.27;2.10;;;;;;;31.39;35.71;102652.03;4998659;28;20027;-55
2022/10/11 10:35:12;;;;;;;10.30;2.72;;;;;;;31.83;34.74;102652.91;5017848;28;21133;-55
2022/10/11 10:37:46;;;;;;;12.80;2.72;;;;;;;32.62;33.87;102653.38;5003482;28;20035;-55
2022/10/11 10:40:27;;;;;;;6.75;1.73;;;;;;;32.02;32.59;102652.06;4999841;28;20042;-54
2022/10/11 10:42:53;;;;;;;9.80;2.25;;;;;;;31.73;33.40;102651.06;5003339;28;20031;-55
2022/10/11 10:45:27;;;;;;;10.90;2.35;;;;;;;32.32;33.38;102645.25;5002532;28;20039;-53
2022/10/11 10:48:25;;;;;;;6.60;1.70;;;;;;;32.67;32.69;102639.41;5006453;28;20104;-53
2022/10/11 10:51:38;;;;;;;12.55;2.78;;;;;;;33.16;31.62;102637.16;5009456;28;20098;-51
2022/10/11 10:54:42;;;;;;;12.50;2.13;;;;;;;32.73;32.22;102640.16;5012018;28;20048;-53
2022/10/11 10:57:39;;;;;;;15.48;2.55;;;;;;;32.40;32.45;102649.28;5007392;28;20046;-54
2022/10/11 11:00:13;;;;;;;12.40;2.30;;;;;;;33.35;32.04;102635.41;4997344;28;20034;-56
2022/10/11 11:03:01;;;;;;;12.25;2.35;;;;;;;33.94;30.81;102640.25;5013865;28;20062;-56
2022/10/11 11:05:47;;;;;;;11.38;2.58;;;;;;;33.83;30.64;102642.44;4997823;28;20051;-57
2022/10/11 11:08:45;;;;;;;11.38;1.83;;;;;;;33.71;30.84;102629.94;5006134;28;20038;-54
2022/10/11 11:11:35;;;;;;;17.98;2.13;;;;;;;34.84;29.91;102638.63;5003225;28;20034;-55
2022/10/11 11:14:37;;;;;;;7.05;2.38;;;;;;;34.97;29.17;102634.09;5009030;28;20046;-54
2022/10/11 11:17:11;;;;;;;12.15;2.35;;;;;;;35.43;28.82;102634.75;5005500;28;20094;-54
2022/10/11 11:19:52;;;;;;;12.18;2.33;;;;;;;36.51;27.90;102635.28;4999241;28;20090;-50
2022/10/11 11:22:33;;;;;;;7.85;2.10;;;;;;;37.22;26.63;102628.31;5002556;28;20058;-52
2022/10/11 11:24:58;;;;;;;12.23;2.17;;;;;;;37.58;26.48;102618.56;4999758;28;20034;-51
2022/10/11 11:27:51;;;;;;;8.93;2.85;;;;;;;38.23;24.84;102628.53;5008648;28;20045;-56
2022/10/11 11:30:28;;;;;;;10.65;3.67;;;;;;;38.05;25.29;102622.28;5004423;28;20076;-54
2022/10/11 11:33:19;;;;;;;9.85;3.30;;;;;;;38.02;25.19;102625.75;5000931;28;20031;-53